METAR Data
IDs: Format: Raw Decoded Include TAF

Data at: 1320 UTC 20 Oct 2021

LYUZ 201300Z 23005KT 180V290 CAVOK 17/M00 Q1025